sensor_id;sensor_type;location;lat;lon;timestamp;P1;durP1;ratioP1;P2;durP2;ratioP2
15063;SDS011;7631;52.088;5.088;2023-03-31T00:02:18;4.50;;;1.33;;
15063;SDS011;7631;52.088;5.088;2023-03-31T00:04:46;6.20;;;2.27;;
15063;SDS011;7631;52.088;5.088;2023-03-31T00:07:16;3.50;;;1.60;;
15063;SDS011;7631;52.088;5.088;2023-03-31T00:09:45;5.27;;;2.00;;
15063;SDS011;7631;52.088;5.088;2023-03-31T00:12:11;4.60;;;1.70;;
15063;SDS011;7631;52.088;5.088;2023-03-31T00:14:37;4.40;;;1.60;;
15063;SDS011;7631;52.088;5.088;2023-03-31T00:17:03;4.73;;;1.57;;
15063;SDS011;7631;52.088;5.088;2023-03-31T00:19:28;5.67;;;2.00;;
15063;SDS011;7631;52.088;5.088;2023-03-31T00:21:57;3.67;;;1.50;;
15063;SDS011;7631;52.088;5.088;2023-03-31T00:24:26;4.20;;;1.30;;
15063;SDS011;7631;52.088;5.088;2023-03-31T00:26:51;3.17;;;1.33;;
15063;SDS011;7631;52.088;5.088;2023-03-31T00:29:16;3.33;;;1.60;;
15063;SDS011;7631;52.088;5.088;2023-03-31T00:31:42;4.70;;;1.97;;
15063;SDS011;7631;52.088;5.088;2023-03-31T00:34:07;4.40;;;1.53;;
15063;SDS011;7631;52.088;5.088;2023-03-31T00:36:32;3.20;;;1.50;;
15063;SDS011;7631;52.088;5.088;2023-03-31T00:39:01;4.10;;;1.70;;
15063;SDS011;7631;52.088;5.088;2023-03-31T00:41:30;4.47;;;1.70;;
15063;SDS011;7631;52.088;5.088;2023-03-31T00:46:45;3.93;;;1.63;;
15063;SDS011;7631;52.088;5.088;2023-03-31T00:49:15;3.90;;;1.80;;
15063;SDS011;7631;52.088;5.088;2023-03-31T00:51:44;3.20;;;1.30;;
15063;SDS011;7631;52.088;5.088;2023-03-31T00:54:10;3.93;;;1.77;;
15063;SDS011;7631;52.088;5.088;2023-03-31T00:56:37;4.10;;;1.80;;
15063;SDS011;7631;52.088;5.088;2023-03-31T00:59:05;2.33;;;1.33;;
15063;SDS011;7631;52.088;5.088;2023-03-31T01:01:31;3.70;;;1.40;;
15063;SDS011;7631;52.088;5.088;2023-03-31T01:03:59;4.10;;;1.90;;
15063;SDS011;7631;52.088;5.088;2023-03-31T01:06:26;3.63;;;1.47;;
15063;SDS011;7631;52.088;5.088;2023-03-31T01:08:55;3.90;;;1.60;;
15063;SDS011;7631;52.088;5.088;2023-03-31T01:11:21;3.23;;;1.30;;
15063;SDS011;7631;52.088;5.088;2023-03-31T01:13:47;3.27;;;1.53;;
15063;SDS011;7631;52.088;5.088;2023-03-31T01:16:15;4.17;;;1.60;;
15063;SDS011;7631;52.088;5.088;2023-03-31T01:18:40;4.10;;;1.57;;
15063;SDS011;7631;52.088;5.088;2023-03-31T01:24:02;4.43;;;1.87;;
15063;SDS011;7631;52.088;5.088;2023-03-31T01:31:56;4.57;;;1.50;;
15063;SDS011;7631;52.088;5.088;2023-03-31T01:42:33;5.57;;;1.80;;
15063;SDS011;7631;52.088;5.088;2023-03-31T01:48:06;3.00;;;1.57;;
15063;SDS011;7631;52.088;5.088;2023-03-31T01:50:44;2.87;;;1.60;;
15063;SDS011;7631;52.088;5.088;2023-03-31T01:55:45;3.27;;;1.50;;
15063;SDS011;7631;52.088;5.088;2023-03-31T01:58:14;2.87;;;1.37;;
15063;SDS011;7631;52.088;5.088;2023-03-31T02:00:54;3.37;;;1.37;;
15063;SDS011;7631;52.088;5.088;2023-03-31T02:03:29;3.40;;;1.70;;
15063;SDS011;7631;52.088;5.088;2023-03-31T02:05:58;3.43;;;1.73;;
15063;SDS011;7631;52.088;5.088;2023-03-31T02:08:25;4.80;;;2.10;;
15063;SDS011;7631;52.088;5.088;2023-03-31T02:10:53;4.00;;;1.67;;
15063;SDS011;7631;52.088;5.088;2023-03-31T02:13:19;4.27;;;1.70;;
15063;SDS011;7631;52.088;5.088;2023-03-31T02:15:46;4.23;;;2.20;;
15063;SDS011;7631;52.088;5.088;2023-03-31T02:18:15;4.53;;;1.87;;
15063;SDS011;7631;52.088;5.088;2023-03-31T02:20:43;4.57;;;1.97;;
15063;SDS011;7631;52.088;5.088;2023-03-31T02:23:11;3.37;;;1.70;;
15063;SDS011;7631;52.088;5.088;2023-03-31T02:25:38;4.80;;;1.87;;
15063;SDS011;7631;52.088;5.088;2023-03-31T02:28:07;4.47;;;1.70;;
15063;SDS011;7631;52.088;5.088;2023-03-31T02:30:43;4.23;;;2.00;;
15063;SDS011;7631;52.088;5.088;2023-03-31T02:33:10;2.87;;;1.60;;
15063;SDS011;7631;52.088;5.088;2023-03-31T02:35:35;3.27;;;1.70;;
15063;SDS011;7631;52.088;5.088;2023-03-31T02:38:00;3.90;;;1.73;;
15063;SDS011;7631;52.088;5.088;2023-03-31T02:40:26;4.43;;;2.00;;
15063;SDS011;7631;52.088;5.088;2023-03-31T02:42:52;4.77;;;2.07;;
15063;SDS011;7631;52.088;5.088;2023-03-31T02:45:37;5.23;;;1.97;;
15063;SDS011;7631;52.088;5.088;2023-03-31T02:48:03;2.63;;;1.70;;
15063;SDS011;7631;52.088;5.088;2023-03-31T02:50:31;2.97;;;1.80;;
15063;SDS011;7631;52.088;5.088;2023-03-31T02:53:02;4.53;;;2.13;;
15063;SDS011;7631;52.088;5.088;2023-03-31T03:08:31;5.70;;;2.10;;
15063;SDS011;7631;52.088;5.088;2023-03-31T03:13:33;4.70;;;2.00;;
15063;SDS011;7631;52.088;5.088;2023-03-31T03:16:04;3.40;;;2.10;;
15063;SDS011;7631;52.088;5.088;2023-03-31T03:18:33;5.07;;;1.60;;
15063;SDS011;7631;52.088;5.088;2023-03-31T03:20:58;3.77;;;1.67;;
15063;SDS011;7631;52.088;5.088;2023-03-31T03:23:23;4.30;;;1.80;;
15063;SDS011;7631;52.088;5.088;2023-03-31T03:25:48;4.00;;;1.73;;
15063;SDS011;7631;52.088;5.088;2023-03-31T03:28:13;4.27;;;1.90;;
15063;SDS011;7631;52.088;5.088;2023-03-31T03:30:39;3.87;;;1.80;;
15063;SDS011;7631;52.088;5.088;2023-03-31T03:33:04;5.20;;;1.70;;
15063;SDS011;7631;52.088;5.088;2023-03-31T03:35:31;3.33;;;1.67;;
15063;SDS011;7631;52.088;5.088;2023-03-31T03:37:56;4.90;;;1.97;;
15063;SDS011;7631;52.088;5.088;2023-03-31T03:40:21;2.73;;;1.50;;
15063;SDS011;7631;52.088;5.088;2023-03-31T03:42:47;2.73;;;1.80;;
15063;SDS011;7631;52.088;5.088;2023-03-31T03:45:12;5.33;;;2.13;;
15063;SDS011;7631;52.088;5.088;2023-03-31T03:47:37;3.13;;;1.90;;
15063;SDS011;7631;52.088;5.088;2023-03-31T03:50:03;4.13;;;1.70;;
15063;SDS011;7631;52.088;5.088;2023-03-31T03:52:28;4.07;;;1.80;;
15063;SDS011;7631;52.088;5.088;2023-03-31T03:54:53;3.87;;;1.63;;
15063;SDS011;7631;52.088;5.088;2023-03-31T03:57:19;6.50;;;2.07;;
15063;SDS011;7631;52.088;5.088;2023-03-31T03:59:45;3.80;;;1.83;;
15063;SDS011;7631;52.088;5.088;2023-03-31T04:02:10;2.50;;;1.53;;
15063;SDS011;7631;52.088;5.088;2023-03-31T04:04:35;3.77;;;1.97;;
15063;SDS011;7631;52.088;5.088;2023-03-31T04:07:00;4.80;;;1.97;;
15063;SDS011;7631;52.088;5.088;2023-03-31T04:09:26;3.00;;;1.30;;
15063;SDS011;7631;52.088;5.088;2023-03-31T04:11:51;3.77;;;1.33;;
15063;SDS011;7631;52.088;5.088;2023-03-31T04:14:16;3.57;;;1.63;;
15063;SDS011;7631;52.088;5.088;2023-03-31T04:16:41;3.43;;;1.80;;
15063;SDS011;7631;52.088;5.088;2023-03-31T04:19:07;2.53;;;1.40;;
15063;SDS011;7631;52.088;5.088;2023-03-31T04:21:32;3.73;;;1.63;;
15063;SDS011;7631;52.088;5.088;2023-03-31T04:23:58;4.00;;;1.63;;
15063;SDS011;7631;52.088;5.088;2023-03-31T04:26:27;2.63;;;1.50;;
15063;SDS011;7631;52.088;5.088;2023-03-31T04:29:03;3.07;;;1.50;;
15063;SDS011;7631;52.088;5.088;2023-03-31T04:31:28;3.33;;;1.63;;
15063;SDS011;7631;52.088;5.088;2023-03-31T04:33:54;4.57;;;1.80;;
15063;SDS011;7631;52.088;5.088;2023-03-31T04:36:20;4.00;;;1.80;;
15063;SDS011;7631;52.088;5.088;2023-03-31T04:38:47;4.50;;;1.90;;
15063;SDS011;7631;52.088;5.088;2023-03-31T04:41:14;4.70;;;1.87;;
15063;SDS011;7631;52.088;5.088;2023-03-31T04:43:40;3.10;;;1.40;;
15063;SDS011;7631;52.088;5.088;2023-03-31T04:46:05;2.40;;;1.47;;
15063;SDS011;7631;52.088;5.088;2023-03-31T04:48:30;3.20;;;1.50;;
15063;SDS011;7631;52.088;5.088;2023-03-31T04:50:56;3.57;;;1.37;;
15063;SDS011;7631;52.088;5.088;2023-03-31T04:53:21;2.53;;;1.60;;
15063;SDS011;7631;52.088;5.088;2023-03-31T04:55:47;2.30;;;1.43;;
15063;SDS011;7631;52.088;5.088;2023-03-31T04:58:12;3.27;;;1.50;;
15063;SDS011;7631;52.088;5.088;2023-03-31T05:00:38;4.23;;;1.37;;
15063;SDS011;7631;52.088;5.088;2023-03-31T05:03:03;4.17;;;1.90;;
15063;SDS011;7631;52.088;5.088;2023-03-31T05:05:28;3.13;;;1.77;;
15063;SDS011;7631;52.088;5.088;2023-03-31T05:07:54;3.20;;;1.50;;
15063;SDS011;7631;52.088;5.088;2023-03-31T05:10:20;4.30;;;1.80;;
15063;SDS011;7631;52.088;5.088;2023-03-31T05:12:45;3.60;;;1.57;;
15063;SDS011;7631;52.088;5.088;2023-03-31T05:15:11;3.47;;;1.77;;
15063;SDS011;7631;52.088;5.088;2023-03-31T05:17:37;3.83;;;1.50;;
15063;SDS011;7631;52.088;5.088;2023-03-31T05:20:02;3.50;;;1.80;;
15063;SDS011;7631;52.088;5.088;2023-03-31T05:22:32;1.97;;;1.23;;
15063;SDS011;7631;52.088;5.088;2023-03-31T05:24:58;3.63;;;1.20;;
15063;SDS011;7631;52.088;5.088;2023-03-31T05:27:23;3.13;;;1.50;;
15063;SDS011;7631;52.088;5.088;2023-03-31T05:29:48;4.13;;;1.47;;
15063;SDS011;7631;52.088;5.088;2023-03-31T05:32:14;3.73;;;1.50;;
15063;SDS011;7631;52.088;5.088;2023-03-31T05:34:40;3.97;;;1.53;;
15063;SDS011;7631;52.088;5.088;2023-03-31T05:37:07;3.20;;;1.40;;
15063;SDS011;7631;52.088;5.088;2023-03-31T05:39:32;3.17;;;1.50;;
15063;SDS011;7631;52.088;5.088;2023-03-31T05:41:58;4.23;;;1.57;;
15063;SDS011;7631;52.088;5.088;2023-03-31T05:44:23;3.73;;;1.60;;
15063;SDS011;7631;52.088;5.088;2023-03-31T05:46:48;3.30;;;1.40;;
15063;SDS011;7631;52.088;5.088;2023-03-31T05:49:14;3.70;;;1.30;;
15063;SDS011;7631;52.088;5.088;2023-03-31T05:51:40;3.13;;;1.30;;
15063;SDS011;7631;52.088;5.088;2023-03-31T05:54:06;2.33;;;1.10;;
15063;SDS011;7631;52.088;5.088;2023-03-31T05:56:31;2.73;;;1.40;;
15063;SDS011;7631;52.088;5.088;2023-03-31T05:58:58;2.93;;;1.40;;
15063;SDS011;7631;52.088;5.088;2023-03-31T06:01:23;4.27;;;1.50;;
15063;SDS011;7631;52.088;5.088;2023-03-31T06:03:48;2.40;;;1.20;;
15063;SDS011;7631;52.088;5.088;2023-03-31T06:06:14;2.50;;;1.30;;
15063;SDS011;7631;52.088;5.088;2023-03-31T06:08:41;2.70;;;1.30;;
15063;SDS011;7631;52.088;5.088;2023-03-31T06:11:07;3.27;;;1.20;;
15063;SDS011;7631;52.088;5.088;2023-03-31T06:13:33;1.87;;;0.90;;
15063;SDS011;7631;52.088;5.088;2023-03-31T06:15:59;2.43;;;1.30;;
15063;SDS011;7631;52.088;5.088;2023-03-31T06:18:25;4.97;;;1.50;;
15063;SDS011;7631;52.088;5.088;2023-03-31T06:20:52;2.43;;;1.10;;
15063;SDS011;7631;52.088;5.088;2023-03-31T06:23:18;3.33;;;1.30;;
15063;SDS011;7631;52.088;5.088;2023-03-31T06:25:43;2.47;;;1.17;;
15063;SDS011;7631;52.088;5.088;2023-03-31T06:28:08;2.03;;;1.17;;
15063;SDS011;7631;52.088;5.088;2023-03-31T06:30:33;2.53;;;1.10;;
15063;SDS011;7631;52.088;5.088;2023-03-31T06:32:58;4.10;;;1.40;;
15063;SDS011;7631;52.088;5.088;2023-03-31T06:35:24;2.43;;;1.20;;
15063;SDS011;7631;52.088;5.088;2023-03-31T06:37:49;1.83;;;1.10;;
15063;SDS011;7631;52.088;5.088;2023-03-31T06:40:15;3.00;;;1.23;;
15063;SDS011;7631;52.088;5.088;2023-03-31T06:42:40;1.50;;;1.00;;
15063;SDS011;7631;52.088;5.088;2023-03-31T06:45:05;2.60;;;1.23;;
15063;SDS011;7631;52.088;5.088;2023-03-31T06:47:31;2.83;;;1.17;;
15063;SDS011;7631;52.088;5.088;2023-03-31T06:49:56;3.00;;;1.27;;
15063;SDS011;7631;52.088;5.088;2023-03-31T06:52:21;2.57;;;1.33;;
15063;SDS011;7631;52.088;5.088;2023-03-31T06:54:46;3.17;;;1.43;;
15063;SDS011;7631;52.088;5.088;2023-03-31T06:57:12;3.13;;;1.27;;
15063;SDS011;7631;52.088;5.088;2023-03-31T06:59:37;2.87;;;1.30;;
15063;SDS011;7631;52.088;5.088;2023-03-31T07:02:02;3.60;;;1.20;;
15063;SDS011;7631;52.088;5.088;2023-03-31T07:04:27;3.17;;;1.33;;
15063;SDS011;7631;52.088;5.088;2023-03-31T07:06:52;2.50;;;1.13;;
15063;SDS011;7631;52.088;5.088;2023-03-31T07:09:18;1.87;;;1.23;;
15063;SDS011;7631;52.088;5.088;2023-03-31T07:11:45;2.67;;;1.43;;
15063;SDS011;7631;52.088;5.088;2023-03-31T07:14:10;2.57;;;1.07;;
15063;SDS011;7631;52.088;5.088;2023-03-31T07:16:35;2.93;;;1.20;;
15063;SDS011;7631;52.088;5.088;2023-03-31T07:19:01;2.97;;;1.10;;
15063;SDS011;7631;52.088;5.088;2023-03-31T07:21:27;2.53;;;1.23;;
15063;SDS011;7631;52.088;5.088;2023-03-31T07:23:52;1.60;;;0.90;;
15063;SDS011;7631;52.088;5.088;2023-03-31T07:26:17;1.73;;;1.10;;
15063;SDS011;7631;52.088;5.088;2023-03-31T07:28:43;3.00;;;1.03;;
15063;SDS011;7631;52.088;5.088;2023-03-31T07:31:12;1.73;;;0.83;;
15063;SDS011;7631;52.088;5.088;2023-03-31T07:33:37;3.37;;;1.23;;
15063;SDS011;7631;52.088;5.088;2023-03-31T07:36:03;2.60;;;0.93;;
15063;SDS011;7631;52.088;5.088;2023-03-31T07:38:29;1.60;;;1.20;;
15063;SDS011;7631;52.088;5.088;2023-03-31T07:40:54;3.00;;;1.50;;
15063;SDS011;7631;52.088;5.088;2023-03-31T07:43:19;2.47;;;1.00;;
15063;SDS011;7631;52.088;5.088;2023-03-31T07:45:45;3.10;;;1.10;;
15063;SDS011;7631;52.088;5.088;2023-03-31T07:48:10;1.63;;;1.00;;
15063;SDS011;7631;52.088;5.088;2023-03-31T07:50:35;2.30;;;1.00;;
15063;SDS011;7631;52.088;5.088;2023-03-31T07:53:01;3.43;;;0.83;;
15063;SDS011;7631;52.088;5.088;2023-03-31T07:55:26;1.97;;;0.90;;
15063;SDS011;7631;52.088;5.088;2023-03-31T07:57:51;2.63;;;0.90;;
15063;SDS011;7631;52.088;5.088;2023-03-31T08:00:16;2.20;;;1.00;;
15063;SDS011;7631;52.088;5.088;2023-03-31T08:02:42;2.23;;;1.07;;
15063;SDS011;7631;52.088;5.088;2023-03-31T08:05:07;2.97;;;0.77;;
15063;SDS011;7631;52.088;5.088;2023-03-31T08:07:34;1.90;;;0.90;;
15063;SDS011;7631;52.088;5.088;2023-03-31T08:09:59;2.10;;;1.00;;
15063;SDS011;7631;52.088;5.088;2023-03-31T08:12:24;1.90;;;1.00;;
15063;SDS011;7631;52.088;5.088;2023-03-31T08:14:50;2.67;;;1.40;;
15063;SDS011;7631;52.088;5.088;2023-03-31T08:17:15;1.70;;;1.10;;
15063;SDS011;7631;52.088;5.088;2023-03-31T08:19:40;1.67;;;0.97;;
15063;SDS011;7631;52.088;5.088;2023-03-31T08:22:05;2.63;;;1.10;;
15063;SDS011;7631;52.088;5.088;2023-03-31T08:24:30;2.37;;;0.93;;
15063;SDS011;7631;52.088;5.088;2023-03-31T08:26:56;1.73;;;0.87;;
15063;SDS011;7631;52.088;5.088;2023-03-31T08:29:21;1.43;;;0.80;;
15063;SDS011;7631;52.088;5.088;2023-03-31T08:31:46;1.83;;;1.00;;
15063;SDS011;7631;52.088;5.088;2023-03-31T08:34:11;2.57;;;1.30;;
15063;SDS011;7631;52.088;5.088;2023-03-31T08:36:36;2.30;;;1.00;;
15063;SDS011;7631;52.088;5.088;2023-03-31T08:39:02;1.40;;;1.00;;
15063;SDS011;7631;52.088;5.088;2023-03-31T08:44:36;1.43;;;0.83;;
15063;SDS011;7631;52.088;5.088;2023-03-31T08:46:55;1.93;;;0.97;;
15063;SDS011;7631;52.088;5.088;2023-03-31T08:49:21;2.23;;;1.23;;
15063;SDS011;7631;52.088;5.088;2023-03-31T08:51:51;2.47;;;1.20;;
15063;SDS011;7631;52.088;5.088;2023-03-31T08:54:53;2.07;;;1.10;;
15063;SDS011;7631;52.088;5.088;2023-03-31T08:57:20;2.77;;;1.00;;
15063;SDS011;7631;52.088;5.088;2023-03-31T08:59:46;2.23;;;1.20;;
15063;SDS011;7631;52.088;5.088;2023-03-31T09:10:19;3.20;;;1.33;;
15063;SDS011;7631;52.088;5.088;2023-03-31T09:12:46;2.03;;;1.10;;
15063;SDS011;7631;52.088;5.088;2023-03-31T09:15:27;3.87;;;1.30;;
15063;SDS011;7631;52.088;5.088;2023-03-31T09:17:53;2.97;;;1.37;;
15063;SDS011;7631;52.088;5.088;2023-03-31T09:20:33;3.97;;;1.53;;
15063;SDS011;7631;52.088;5.088;2023-03-31T09:25:33;4.83;;;1.70;;
15063;SDS011;7631;52.088;5.088;2023-03-31T09:28:00;6.83;;;2.20;;
15063;SDS011;7631;52.088;5.088;2023-03-31T09:30:28;3.17;;;1.30;;
15063;SDS011;7631;52.088;5.088;2023-03-31T09:32:57;4.80;;;1.90;;
15063;SDS011;7631;52.088;5.088;2023-03-31T09:35:27;5.13;;;1.67;;
15063;SDS011;7631;52.088;5.088;2023-03-31T09:37:57;4.20;;;1.87;;
15063;SDS011;7631;52.088;5.088;2023-03-31T09:40:23;5.80;;;2.13;;
15063;SDS011;7631;52.088;5.088;2023-03-31T09:43:00;5.17;;;2.00;;
15063;SDS011;7631;52.088;5.088;2023-03-31T09:45:25;4.63;;;1.87;;
15063;SDS011;7631;52.088;5.088;2023-03-31T09:47:53;4.77;;;2.00;;
15063;SDS011;7631;52.088;5.088;2023-03-31T09:50:19;6.20;;;1.80;;
15063;SDS011;7631;52.088;5.088;2023-03-31T09:52:49;7.20;;;2.30;;
15063;SDS011;7631;52.088;5.088;2023-03-31T09:55:22;5.87;;;1.87;;
15063;SDS011;7631;52.088;5.088;2023-03-31T09:57:48;6.27;;;2.17;;
15063;SDS011;7631;52.088;5.088;2023-03-31T10:00:15;5.20;;;2.07;;
15063;SDS011;7631;52.088;5.088;2023-03-31T10:07:43;6.27;;;2.07;;
15063;SDS011;7631;52.088;5.088;2023-03-31T10:10:09;4.47;;;1.50;;
15063;SDS011;7631;52.088;5.088;2023-03-31T10:12:43;5.80;;;1.90;;
15063;SDS011;7631;52.088;5.088;2023-03-31T10:15:21;5.83;;;2.13;;
15063;SDS011;7631;52.088;5.088;2023-03-31T10:17:47;4.93;;;1.77;;
15063;SDS011;7631;52.088;5.088;2023-03-31T10:23:13;5.87;;;1.87;;
15063;SDS011;7631;52.088;5.088;2023-03-31T10:25:39;4.20;;;1.87;;
15063;SDS011;7631;52.088;5.088;2023-03-31T10:28:05;4.40;;;1.80;;
15063;SDS011;7631;52.088;5.088;2023-03-31T10:30:34;5.00;;;1.90;;
15063;SDS011;7631;52.088;5.088;2023-03-31T10:33:05;4.13;;;1.67;;
15063;SDS011;7631;52.088;5.088;2023-03-31T10:35:32;4.93;;;1.90;;
15063;SDS011;7631;52.088;5.088;2023-03-31T10:37:58;5.47;;;1.80;;
15063;SDS011;7631;52.088;5.088;2023-03-31T10:40:26;7.10;;;2.17;;
15063;SDS011;7631;52.088;5.088;2023-03-31T10:43:25;6.47;;;2.30;;
15063;SDS011;7631;52.088;5.088;2023-03-31T10:45:47;4.00;;;1.80;;
15063;SDS011;7631;52.088;5.088;2023-03-31T10:48:24;5.37;;;2.03;;
15063;SDS011;7631;52.088;5.088;2023-03-31T10:50:49;5.17;;;2.20;;
15063;SDS011;7631;52.088;5.088;2023-03-31T10:53:15;6.70;;;2.10;;
15063;SDS011;7631;52.088;5.088;2023-03-31T10:55:47;6.77;;;2.07;;
15063;SDS011;7631;52.088;5.088;2023-03-31T11:00:55;4.57;;;2.13;;
15063;SDS011;7631;52.088;5.088;2023-03-31T11:06:02;4.47;;;2.10;;
15063;SDS011;7631;52.088;5.088;2023-03-31T11:20:56;6.03;;;2.20;;
15063;SDS011;7631;52.088;5.088;2023-03-31T11:23:30;5.53;;;2.00;;
15063;SDS011;7631;52.088;5.088;2023-03-31T11:26:01;4.63;;;2.00;;
15063;SDS011;7631;52.088;5.088;2023-03-31T11:31:20;5.37;;;1.77;;
15063;SDS011;7631;52.088;5.088;2023-03-31T11:34:00;5.37;;;2.00;;
15063;SDS011;7631;52.088;5.088;2023-03-31T11:44:08;5.07;;;2.03;;
15063;SDS011;7631;52.088;5.088;2023-03-31T11:46:37;5.13;;;2.43;;
15063;SDS011;7631;52.088;5.088;2023-03-31T11:49:10;4.93;;;1.80;;
15063;SDS011;7631;52.088;5.088;2023-03-31T11:54:18;6.27;;;1.90;;
15063;SDS011;7631;52.088;5.088;2023-03-31T11:56:44;5.23;;;2.03;;
15063;SDS011;7631;52.088;5.088;2023-03-31T11:59:10;5.63;;;2.40;;
15063;SDS011;7631;52.088;5.088;2023-03-31T12:01:43;6.20;;;2.07;;
15063;SDS011;7631;52.088;5.088;2023-03-31T12:06:59;5.30;;;1.87;;
15063;SDS011;7631;52.088;5.088;2023-03-31T12:09:32;5.23;;;2.07;;
15063;SDS011;7631;52.088;5.088;2023-03-31T12:12:14;5.70;;;1.90;;
15063;SDS011;7631;52.088;5.088;2023-03-31T12:14:44;6.17;;;2.13;;
15063;SDS011;7631;52.088;5.088;2023-03-31T12:17:14;7.37;;;2.27;;
15063;SDS011;7631;52.088;5.088;2023-03-31T12:24:50;7.00;;;1.97;;
15063;SDS011;7631;52.088;5.088;2023-03-31T12:27:29;7.10;;;2.27;;
15063;SDS011;7631;52.088;5.088;2023-03-31T12:32:30;3.93;;;1.93;;
15063;SDS011;7631;52.088;5.088;2023-03-31T12:42:47;3.97;;;1.40;;
15063;SDS011;7631;52.088;5.088;2023-03-31T12:45:17;4.43;;;1.70;;
15063;SDS011;7631;52.088;5.088;2023-03-31T12:50:34;4.97;;;1.83;;
15063;SDS011;7631;52.088;5.088;2023-03-31T12:55:36;5.37;;;1.80;;
15063;SDS011;7631;52.088;5.088;2023-03-31T12:58:31;4.80;;;1.63;;
15063;SDS011;7631;52.088;5.088;2023-03-31T13:03:41;3.37;;;1.50;;
15063;SDS011;7631;52.088;5.088;2023-03-31T13:06:08;2.80;;;1.60;;
15063;SDS011;7631;52.088;5.088;2023-03-31T13:11:15;4.23;;;1.43;;
15063;SDS011;7631;52.088;5.088;2023-03-31T13:13:43;5.00;;;1.53;;
15063;SDS011;7631;52.088;5.088;2023-03-31T13:16:09;3.90;;;1.60;;
15063;SDS011;7631;52.088;5.088;2023-03-31T13:18:34;3.87;;;1.60;;
15063;SDS011;7631;52.088;5.088;2023-03-31T13:21:03;4.13;;;1.50;;
15063;SDS011;7631;52.088;5.088;2023-03-31T13:23:30;3.57;;;1.77;;
15063;SDS011;7631;52.088;5.088;2023-03-31T13:25:57;4.37;;;1.60;;
15063;SDS011;7631;52.088;5.088;2023-03-31T13:33:18;4.60;;;1.77;;
15063;SDS011;7631;52.088;5.088;2023-03-31T13:35:45;4.60;;;1.63;;
15063;SDS011;7631;52.088;5.088;2023-03-31T13:40:43;2.63;;;1.33;;
15063;SDS011;7631;52.088;5.088;2023-03-31T13:43:24;5.00;;;1.77;;
15063;SDS011;7631;52.088;5.088;2023-03-31T13:45:59;3.80;;;1.63;;
15063;SDS011;7631;52.088;5.088;2023-03-31T13:53:35;4.43;;;1.77;;
15063;SDS011;7631;52.088;5.088;2023-03-31T13:56:08;3.80;;;1.67;;
15063;SDS011;7631;52.088;5.088;2023-03-31T13:58:43;2.87;;;1.33;;
15063;SDS011;7631;52.088;5.088;2023-03-31T14:03:46;2.87;;;1.30;;
15063;SDS011;7631;52.088;5.088;2023-03-31T14:11:17;3.67;;;1.60;;
15063;SDS011;7631;52.088;5.088;2023-03-31T14:13:42;3.87;;;1.40;;
15063;SDS011;7631;52.088;5.088;2023-03-31T14:16:07;3.80;;;1.50;;
15063;SDS011;7631;52.088;5.088;2023-03-31T14:18:34;2.17;;;1.30;;
15063;SDS011;7631;52.088;5.088;2023-03-31T14:31:34;2.87;;;1.30;;
15063;SDS011;7631;52.088;5.088;2023-03-31T14:39:21;3.57;;;1.30;;
15063;SDS011;7631;52.088;5.088;2023-03-31T14:41:51;3.47;;;1.60;;
15063;SDS011;7631;52.088;5.088;2023-03-31T14:44:17;3.67;;;1.17;;
15063;SDS011;7631;52.088;5.088;2023-03-31T14:46:43;3.97;;;1.63;;
15063;SDS011;7631;52.088;5.088;2023-03-31T14:51:41;4.43;;;1.40;;
15063;SDS011;7631;52.088;5.088;2023-03-31T14:54:13;3.47;;;1.10;;
15063;SDS011;7631;52.088;5.088;2023-03-31T14:56:39;2.87;;;1.50;;
15063;SDS011;7631;52.088;5.088;2023-03-31T14:59:05;2.37;;;1.00;;
15063;SDS011;7631;52.088;5.088;2023-03-31T15:01:32;2.97;;;1.17;;
15063;SDS011;7631;52.088;5.088;2023-03-31T15:03:58;2.40;;;1.47;;
15063;SDS011;7631;52.088;5.088;2023-03-31T15:06:24;4.17;;;1.43;;
15063;SDS011;7631;52.088;5.088;2023-03-31T15:08:51;2.93;;;1.40;;
15063;SDS011;7631;52.088;5.088;2023-03-31T15:11:17;2.30;;;1.00;;
15063;SDS011;7631;52.088;5.088;2023-03-31T15:13:46;2.00;;;1.10;;
15063;SDS011;7631;52.088;5.088;2023-03-31T15:18:58;2.07;;;1.10;;
15063;SDS011;7631;52.088;5.088;2023-03-31T15:21:24;2.20;;;1.10;;
15063;SDS011;7631;52.088;5.088;2023-03-31T15:23:50;3.27;;;1.00;;
15063;SDS011;7631;52.088;5.088;2023-03-31T15:26:20;2.30;;;1.10;;
15063;SDS011;7631;52.088;5.088;2023-03-31T15:28:52;1.87;;;1.00;;
15063;SDS011;7631;52.088;5.088;2023-03-31T15:31:19;4.30;;;1.40;;
15063;SDS011;7631;52.088;5.088;2023-03-31T15:33:44;2.73;;;1.30;;
15063;SDS011;7631;52.088;5.088;2023-03-31T15:36:10;3.07;;;1.27;;
15063;SDS011;7631;52.088;5.088;2023-03-31T15:38:36;1.47;;;0.90;;
15063;SDS011;7631;52.088;5.088;2023-03-31T15:41:01;1.40;;;0.80;;
15063;SDS011;7631;52.088;5.088;2023-03-31T15:43:30;2.77;;;1.33;;
15063;SDS011;7631;52.088;5.088;2023-03-31T15:45:57;2.60;;;0.97;;
15063;SDS011;7631;52.088;5.088;2023-03-31T15:48:29;3.13;;;0.97;;
15063;SDS011;7631;52.088;5.088;2023-03-31T15:51:01;2.23;;;0.83;;
15063;SDS011;7631;52.088;5.088;2023-03-31T15:53:37;3.37;;;1.17;;
15063;SDS011;7631;52.088;5.088;2023-03-31T15:56:03;2.00;;;1.03;;
15063;SDS011;7631;52.088;5.088;2023-03-31T16:01:13;2.80;;;1.00;;
15063;SDS011;7631;52.088;5.088;2023-03-31T16:03:39;2.10;;;1.00;;
15063;SDS011;7631;52.088;5.088;2023-03-31T16:06:06;2.63;;;1.30;;
15063;SDS011;7631;52.088;5.088;2023-03-31T16:08:39;2.13;;;1.00;;
15063;SDS011;7631;52.088;5.088;2023-03-31T16:11:10;2.80;;;0.97;;
15063;SDS011;7631;52.088;5.088;2023-03-31T16:13:37;2.27;;;1.10;;
15063;SDS011;7631;52.088;5.088;2023-03-31T16:16:06;1.80;;;1.20;;
15063;SDS011;7631;52.088;5.088;2023-03-31T16:18:33;1.70;;;1.10;;
15063;SDS011;7631;52.088;5.088;2023-03-31T16:21:00;1.63;;;1.10;;
15063;SDS011;7631;52.088;5.088;2023-03-31T16:23:29;1.83;;;1.00;;
15063;SDS011;7631;52.088;5.088;2023-03-31T16:25:55;2.43;;;1.07;;
15063;SDS011;7631;52.088;5.088;2023-03-31T16:28:24;1.77;;;0.90;;
15063;SDS011;7631;52.088;5.088;2023-03-31T16:30:50;2.43;;;1.00;;
15063;SDS011;7631;52.088;5.088;2023-03-31T16:33:17;1.93;;;1.00;;
15063;SDS011;7631;52.088;5.088;2023-03-31T16:35:43;1.50;;;0.80;;
15063;SDS011;7631;52.088;5.088;2023-03-31T16:38:10;1.53;;;0.90;;
15063;SDS011;7631;52.088;5.088;2023-03-31T16:40:36;1.80;;;1.10;;
15063;SDS011;7631;52.088;5.088;2023-03-31T16:43:21;2.70;;;0.87;;
15063;SDS011;7631;52.088;5.088;2023-03-31T16:48:13;1.53;;;0.90;;
15063;SDS011;7631;52.088;5.088;2023-03-31T16:50:38;1.83;;;1.20;;
15063;SDS011;7631;52.088;5.088;2023-03-31T16:53:04;1.87;;;0.80;;
15063;SDS011;7631;52.088;5.088;2023-03-31T16:55:29;1.93;;;0.90;;
15063;SDS011;7631;52.088;5.088;2023-03-31T16:57:58;1.40;;;0.90;;
15063;SDS011;7631;52.088;5.088;2023-03-31T17:00:26;1.80;;;1.07;;
15063;SDS011;7631;52.088;5.088;2023-03-31T17:02:52;1.90;;;1.00;;
15063;SDS011;7631;52.088;5.088;2023-03-31T17:05:17;2.50;;;1.00;;
15063;SDS011;7631;52.088;5.088;2023-03-31T17:07:44;1.60;;;0.97;;
15063;SDS011;7631;52.088;5.088;2023-03-31T17:10:10;1.10;;;0.80;;
15063;SDS011;7631;52.088;5.088;2023-03-31T17:12:36;1.27;;;0.97;;
15063;SDS011;7631;52.088;5.088;2023-03-31T17:15:02;1.90;;;1.10;;
15063;SDS011;7631;52.088;5.088;2023-03-31T17:17:27;1.37;;;0.80;;
15063;SDS011;7631;52.088;5.088;2023-03-31T17:19:53;2.13;;;1.00;;
15063;SDS011;7631;52.088;5.088;2023-03-31T17:22:18;1.63;;;0.97;;
15063;SDS011;7631;52.088;5.088;2023-03-31T17:24:43;1.60;;;1.13;;
15063;SDS011;7631;52.088;5.088;2023-03-31T17:27:08;1.10;;;0.90;;
15063;SDS011;7631;52.088;5.088;2023-03-31T17:29:33;1.60;;;1.20;;
15063;SDS011;7631;52.088;5.088;2023-03-31T17:31:59;2.27;;;0.70;;
15063;SDS011;7631;52.088;5.088;2023-03-31T17:34:25;1.10;;;1.00;;
15063;SDS011;7631;52.088;5.088;2023-03-31T17:36:50;2.00;;;1.20;;
15063;SDS011;7631;52.088;5.088;2023-03-31T17:39:18;1.10;;;1.00;;
15063;SDS011;7631;52.088;5.088;2023-03-31T17:41:43;0.83;;;0.80;;
15063;SDS011;7631;52.088;5.088;2023-03-31T17:44:09;1.27;;;1.00;;
15063;SDS011;7631;52.088;5.088;2023-03-31T17:46:36;1.73;;;1.20;;
15063;SDS011;7631;52.088;5.088;2023-03-31T17:49:01;1.50;;;1.10;;
15063;SDS011;7631;52.088;5.088;2023-03-31T17:51:26;1.33;;;0.90;;